createdAt,value
2022-11-02T00:04:45.937Z,68.07
2022-11-02T00:09:48.781Z,69.60
2022-11-02T00:14:50.627Z,73.27
2022-11-02T00:19:52.651Z,66.93
2022-11-02T00:24:55.763Z,60.83
2022-11-02T00:29:59.895Z,61.45
2022-11-02T00:35:01.899Z,55.53
2022-11-02T00:40:04.752Z,57.58
2022-11-02T00:45:07.722Z,63.08
2022-11-02T00:50:09.951Z,60.17
2022-11-02T00:55:15.155Z,57.58
2022-11-02T01:00:19.156Z,55.47
2022-11-02T01:05:21.561Z,55.17
2022-11-02T01:10:23.558Z,52.58
2022-11-02T01:15:25.485Z,48.35
2022-11-02T01:20:27.423Z,49.55
2022-11-02T01:25:29.508Z,49.17
2022-11-02T01:30:31.402Z,48.95
2022-11-02T01:35:33.267Z,49.75
2022-11-02T01:40:40.407Z,47.92
2022-11-02T01:45:42.294Z,43.33
2022-11-02T01:50:44.596Z,44.30
2022-11-02T01:55:46.712Z,42.95
2022-11-02T02:00:48.678Z,46.92
2022-11-02T02:05:57.919Z,44.42
2022-11-02T02:10:59.871Z,43.90
2022-11-02T02:16:01.883Z,47.78
2022-11-02T02:21:22.970Z,50.45
2022-11-02T02:26:33.835Z,46.22
2022-11-02T02:31:44.252Z,46.45
2022-11-02T02:36:52.108Z,48.15
2022-11-02T02:42:23.636Z,50.42
2022-11-02T02:47:30.500Z,51.58
2022-11-02T02:52:35.881Z,55.03
2022-11-02T02:57:37.990Z,54.10
2022-11-02T03:02:40.374Z,51.75
2022-11-02T03:07:44.837Z,55.25
2022-11-02T03:12:52.970Z,57.83
2022-11-02T03:18:15.623Z,56.35
2022-11-02T03:23:24.227Z,61.70
2022-11-02T03:28:50.531Z,55.85
2022-11-02T03:34:18.747Z,58.45
2022-11-02T03:39:42.202Z,60.97
2022-11-02T03:44:45.947Z,54.92
2022-11-02T03:49:50.276Z,55.17
2022-11-02T03:55:02.935Z,59.95
2022-11-02T04:00:13.501Z,60.63
2022-11-02T04:05:34.250Z,66.72
2022-11-02T04:11:02.303Z,73.97
2022-11-02T04:16:04.595Z,61.13
2022-11-02T04:21:06.631Z,67.53
2022-11-02T04:26:08.589Z,66.28
2022-11-02T04:31:15.714Z,62.72
2022-11-02T04:36:18.009Z,70.63
2022-11-02T04:41:43.989Z,68.20
2022-11-02T04:47:12.769Z,73.43
2022-11-02T04:52:14.810Z,70.55
2022-11-02T04:57:22.184Z,73.13
2022-11-02T05:02:25.293Z,89.13
2022-11-02T05:07:27.636Z,78.32
2022-11-02T05:12:29.959Z,80.60
2022-11-02T05:17:33.945Z,81.47
2022-11-02T05:22:42.587Z,82.82
2022-11-02T05:27:44.737Z,82.32
2022-11-02T05:32:48.083Z,88.07
2022-11-02T05:37:50.085Z,86.85
2022-11-02T05:42:59.914Z,82.85
2022-11-02T05:48:04.293Z,82.85
2022-11-02T05:53:06.448Z,94.05
2022-11-02T05:58:08.655Z,87.05
2022-11-02T06:03:10.658Z,79.82
2022-11-02T06:08:12.814Z,87.50
2022-11-02T06:13:14.702Z,82.70
2022-11-02T06:18:16.587Z,84.82
2022-11-02T06:23:18.480Z,83.55
2022-11-02T06:28:21.082Z,82.90
2022-11-02T06:33:30.499Z,81.38
2022-11-02T06:38:39.206Z,86.70
2022-11-02T06:43:41.149Z,90.32
2022-11-02T06:48:43.230Z,83.85
2022-11-02T06:53:45.290Z,89.90
2022-11-02T06:58:47.167Z,89.50
2022-11-02T07:03:49.179Z,76.38
2022-11-02T07:08:51.250Z,83.53
2022-11-02T07:13:53.437Z,76.45
2022-11-02T07:18:55.335Z,76.18
2022-11-02T07:23:57.357Z,75.63
2022-11-02T07:28:59.677Z,69.25
2022-11-02T07:34:02.048Z,68.00
2022-11-02T07:39:04.669Z,66.68
2022-11-02T07:44:07.207Z,64.43
2022-11-02T07:54:31.640Z,52.00
2022-11-02T07:59:34.000Z,50.08
2022-11-02T08:04:38.411Z,43.05
2022-11-02T08:09:42.772Z,45.50
2022-11-02T08:14:44.643Z,41.42
2022-11-02T08:19:46.500Z,44.53
2022-11-02T08:24:48.411Z,39.63
2022-11-02T08:29:50.335Z,43.08
2022-11-02T08:34:52.518Z,42.63
2022-11-02T08:39:56.940Z,41.55
2022-11-02T08:45:05.164Z,39.97
2022-11-02T08:50:08.789Z,42.53
2022-11-02T09:00:14.154Z,34.42
2022-11-02T09:05:16.153Z,31.55
2022-11-02T09:10:18.177Z,35.42
2022-11-02T09:15:20.307Z,32.53
2022-11-02T09:20:23.436Z,31.85
2022-11-02T09:25:26.117Z,30.38
2022-11-02T09:30:28.879Z,34.37
2022-11-02T09:35:34.397Z,33.20
2022-11-02T09:40:46.488Z,32.97
2022-11-02T09:46:11.692Z,30.05
2022-11-02T09:51:36.052Z,29.45
2022-11-02T09:56:38.053Z,30.48
2022-11-02T10:01:46.867Z,26.65
2022-11-02T10:07:02.301Z,28.50
2022-11-02T10:12:14.319Z,28.52
2022-11-02T10:17:24.281Z,24.65
2022-11-02T10:22:35.153Z,24.25
2022-11-02T10:27:42.750Z,25.13
2022-11-02T10:32:47.593Z,23.52
2022-11-02T10:38:15.494Z,22.38
2022-11-02T10:43:26.547Z,23.95
2022-11-02T10:48:56.012Z,24.33
2022-11-02T10:53:57.995Z,23.23
2022-11-02T10:59:02.639Z,19.65
2022-11-02T11:04:07.086Z,21.20
2022-11-02T11:09:18.476Z,19.50
2022-11-02T11:19:52.702Z,17.73
2022-11-02T11:25:28.392Z,18.52
2022-11-02T11:36:00.417Z,20.13
2022-11-02T11:41:03.954Z,16.88
2022-11-02T11:46:08.481Z,17.67
2022-11-02T11:51:27.635Z,17.55
2022-11-02T11:56:36.219Z,16.33
2022-11-02T12:01:40.132Z,15.52
2022-11-02T12:07:24.180Z,11.05
2022-11-02T12:17:50.443Z,11.18
2022-11-02T12:23:05.113Z,12.35
2022-11-02T12:28:22.820Z,12.13
2022-11-02T12:33:31.118Z,11.60
2022-11-02T12:38:52.896Z,12.18
2022-11-02T12:44:09.411Z,13.88
2022-11-02T12:49:43.478Z,12.90
2022-11-02T12:54:49.377Z,13.55
2022-11-02T12:59:55.168Z,13.02
2022-11-02T13:05:09.429Z,14.48
2022-11-02T13:10:25.963Z,13.55
2022-11-02T13:15:29.947Z,13.35
2022-11-02T13:20:59.334Z,12.05
2022-11-02T13:26:06.475Z,11.63
2022-11-02T13:31:15.527Z,11.82
2022-11-02T13:36:18.508Z,12.27
2022-11-02T13:41:32.341Z,11.20
2022-11-02T13:46:58.675Z,10.48
2022-11-02T13:52:21.275Z,9.82
2022-11-02T13:57:41.811Z,9.98
2022-11-02T14:02:44.107Z,11.25
2022-11-02T14:07:46.158Z,13.07
2022-11-02T14:12:49.605Z,14.30
2022-11-02T14:23:14.353Z,12.02
2022-11-02T14:28:25.747Z,13.90
2022-11-02T14:33:55.602Z,50.60
2022-11-02T14:39:25.135Z,13.50
2022-11-02T14:44:29.755Z,11.38
2022-11-02T14:49:40.666Z,11.85
2022-11-02T14:55:13.526Z,11.25
2022-11-02T15:00:23.302Z,12.32
2022-11-02T15:05:36.884Z,71.22
2022-11-02T15:10:42.598Z,36.63
2022-11-02T15:16:05.406Z,21.80
2022-11-02T15:21:11.113Z,18.70
2022-11-02T15:26:19.136Z,17.75
2022-11-02T15:31:26.131Z,23.67
2022-11-02T15:36:37.397Z,24.80
2022-11-02T15:41:51.380Z,34.03
2022-11-02T15:47:14.440Z,28.38
2022-11-02T15:52:31.056Z,28.07
2022-11-02T15:57:44.981Z,30.27
2022-11-02T16:02:52.156Z,30.30
2022-11-02T16:08:11.764Z,33.03
2022-11-02T16:13:17.436Z,35.05
2022-11-02T16:18:29.377Z,36.72
2022-11-02T16:23:34.337Z,42.53
2022-11-02T16:28:37.850Z,39.25
2022-11-02T16:33:44.282Z,47.33
2022-11-02T16:38:58.405Z,63.38
2022-11-02T16:44:16.376Z,46.50
2022-11-02T16:49:23.187Z,52.50
2022-11-02T16:54:34.692Z,65.55
2022-11-02T16:59:38.712Z,63.08
2022-11-02T17:04:43.991Z,55.63
2022-11-02T17:09:55.057Z,51.17
2022-11-02T17:14:58.499Z,65.90
2022-11-02T17:20:15.225Z,65.05
2022-11-02T17:25:32.470Z,83.10
2022-11-02T17:30:34.313Z,74.15
2022-11-02T17:35:36.641Z,78.93
2022-11-02T17:40:38.946Z,100.78
2022-11-02T17:45:40.851Z,107.50
2022-11-02T17:50:42.947Z,108.75
2022-11-02T17:55:45.136Z,107.90
2022-11-02T18:00:49.853Z,111.88
2022-11-02T18:05:55.835Z,96.93
2022-11-02T18:11:00.813Z,88.07
2022-11-02T18:16:02.666Z,97.97
2022-11-02T18:21:04.668Z,66.70
2022-11-02T18:26:07.982Z,70.03
2022-11-02T18:31:10.408Z,70.18
2022-11-02T18:36:12.303Z,55.88
2022-11-02T18:41:34.672Z,41.25
2022-11-02T18:46:36.736Z,42.50
2022-11-02T18:51:42.927Z,39.03
2022-11-02T18:56:45.460Z,46.90
2022-11-02T19:01:47.523Z,50.72
2022-11-02T19:07:10.048Z,59.35
2022-11-02T19:12:23.706Z,51.28
2022-11-02T19:17:26.683Z,43.05
2022-11-02T19:22:28.800Z,28.00
2022-11-02T19:27:30.895Z,24.55
2022-11-02T19:32:32.760Z,23.10
2022-11-02T19:37:34.894Z,20.50
2022-11-02T19:42:36.902Z,20.75
2022-11-02T19:47:43.274Z,26.10
2022-11-02T19:52:46.461Z,20.00
2022-11-02T19:57:48.860Z,19.92
2022-11-02T20:02:51.083Z,19.98
2022-11-02T20:07:53.066Z,21.70
2022-11-02T20:12:55.099Z,20.92
2022-11-02T20:18:17.717Z,21.58
2022-11-02T20:23:20.511Z,26.63
2022-11-02T20:28:22.333Z,23.05
2022-11-02T20:33:24.701Z,15.77
2022-11-02T20:38:26.894Z,16.10
2022-11-02T20:43:28.977Z,14.13
2022-11-02T20:48:31.183Z,11.82
2022-11-02T20:53:33.342Z,10.90
2022-11-02T20:58:35.750Z,9.80
2022-11-02T21:03:37.618Z,9.13
2022-11-02T21:08:40.490Z,9.05
2022-11-02T21:13:54.339Z,8.87
2022-11-02T21:18:57.138Z,8.50
2022-11-02T21:23:59.007Z,6.93
2022-11-02T21:29:01.327Z,6.70
2022-11-02T21:34:10.600Z,7.97
2022-11-02T21:39:19.224Z,11.93
2022-11-02T21:44:21.068Z,15.23
2022-11-02T21:49:23.279Z,13.27
2022-11-02T21:54:25.369Z,11.68
2022-11-02T21:59:27.450Z,10.95
2022-11-02T22:04:31.416Z,12.32
2022-11-02T22:09:33.567Z,18.13
2022-11-02T22:14:39.085Z,18.77
2022-11-02T22:19:41.033Z,12.10
2022-11-02T22:24:44.925Z,14.25
2022-11-02T22:29:47.176Z,11.77
2022-11-02T22:34:49.378Z,10.35
2022-11-02T22:39:51.204Z,12.77
2022-11-02T22:44:55.108Z,11.30
2022-11-02T22:49:56.928Z,12.13
2022-11-02T22:54:58.771Z,10.93
2022-11-02T23:00:00.868Z,11.57
2022-11-02T23:05:02.767Z,11.50
2022-11-02T23:10:24.868Z,12.35
2022-11-02T23:15:26.779Z,14.20
2022-11-02T23:20:28.649Z,12.40
2022-11-02T23:25:30.475Z,11.98
2022-11-02T23:30:56.259Z,10.20
2022-11-02T23:36:10.982Z,8.85
2022-11-02T23:41:12.966Z,8.63
2022-11-02T23:46:14.923Z,8.57
2022-11-02T23:51:35.244Z,8.40
2022-11-02T23:56:43.175Z,7.72
